East Union, Washington
Current Conditions -  °F | °C
As of 3:01 PM on Saturday 22 Nov 2014 (Local Time) from KBFI Reporting Station
Broken Clouds Broken Clouds  
Wind Chill: 45°   Ceiling: 3100
Heat Index: 48°   Visibility: 10mi
Dew Point: 43°   Wind: 7mph
Humidity: 82%   Direction: 110°ESE
Pressure: 29.94"   Gusts: NA
Location:  47.6108°N, 122.302°W
Report Text: KBFI 222301Z 11006KT 10SM SCT025 BKN031 09/06 A2994 RMK AO2
Loading
Personal Weather Stations






























Interactive Weather Map New forecast layout! Learn more

10-Day Weather Forecast

Advertisements
Track Severe Weather on mobile